Ferry Kyoto2 — JI3701 — position and weather

sailwx.info

Track history (hours):
 
Tides and Currents Weather Stations Pressure Air Temp Water Temp Dewpoint Dewpoint Depression Visibility Wind Speed Wind Dir Waves Ship Positions

Ferry Kyoto2

Last reported at 2015-Jul-04 21:33 UTC. Time now 2015-Jul-04 22:30 UTC.
Position N 34°34' E 134°52'.

Length 167 m; draft 6 m.

Type: Passenger vessel. MMSI: 431301641.

Date/timePositionNaut miles runAvg speedWind from/ knotsBaromVisibWave heightAir tempDewpointWater temp
2015-Jul-04 21:33N 34°34' E 134°52'1 0.0
2015-Jul-03 12:29N 34°35' E 134°52'2021.6
2015-Jul-03 11:34N 34°36' E 135°16'8 6.4
2015-Jul-03 10:18N 34°37' E 135°26'0 0.0
2015-Jul-03 09:30N 34°37' E 135°26'0 0.0
2015-Jul-03 08:30N 34°37' E 135°26'0 0.0
2015-Jul-03 07:30N 34°37' E 135°26'0 0.0
2015-Jul-03 06:30N 34°37' E 135°26'0 0.0
2015-Jul-03 05:30N 34°37' E 135°26'0 0.0
2015-Jul-03 04:30N 34°37' E 135°26'0 0.0
2015-Jul-03 03:30N 34°37' E 135°26'0 0.0
2015-Jul-03 02:30N 34°37' E 135°26'0 0.0
2015-Jul-03 01:30N 34°37' E 135°26'0 0.0
2015-Jul-03 00:30N 34°37' E 135°26'0 0.0
2015-Jul-02 23:33N 34°37' E 135°26'1110.9
2015-Jul-02 22:33N 34°35' E 135°13'1817.9
2015-Jul-02 21:32N 34°34' E 134°51'3 0.1
2015-Jul-01 12:33N 34°34' E 134°47'2222.3
2015-Jul-01 11:33N 34°36' E 135°14'10 8.7
2015-Jul-01 10:25N 34°37' E 135°26'0 0.0
2015-Jul-01 09:31N 34°37' E 135°26'0 0.0
2015-Jul-01 08:31N 34°37' E 135°26'0 0.0
2015-Jul-01 07:31N 34°37' E 135°26'0 0.0
2015-Jul-01 06:19N 34°37' E 135°26'0 0.0
2015-Jul-01 05:31N 34°37' E 135°26'0 0.0
2015-Jul-01 04:31N 34°37' E 135°26'0 0.0
2015-Jul-01 03:31N 34°37' E 135°26'0 0.0
2015-Jul-01 02:31N 34°37' E 135°26'0 0.0
2015-Jul-01 01:31N 34°37' E 135°26'0 0.0
2015-Jul-01 00:25N 34°37' E 135°26'0 0.0
2015-Jun-30 23:33N 34°37' E 135°26'1111.1
2015-Jun-30 22:33N 34°35' E 135°13'2019.7
2015-Jun-30 21:33N 34°33' E 134°49'2 0.1
2015-Jun-29 12:23N 34°35' E 134°50'1821.9
2015-Jun-29 11:33N 34°37' E 135°12'1110.3
2015-Jun-29 10:29N 34°37' E 135°26'0 0.0
2015-Jun-29 09:17N 34°37' E 135°26'0 0.0
2015-Jun-29 08:17N 34°37' E 135°26'0 0.0
2015-Jun-29 07:29N 34°37' E 135°26'0 0.0
2015-Jun-29 06:29N 34°37' E 135°26'0 0.0
2015-Jun-29 05:23N 34°37' E 135°26'0 0.0
2015-Jun-29 04:29N 34°37' E 135°26'0 0.0
2015-Jun-29 03:29N 34°37' E 135°26'0 0.0
2015-Jun-29 02:23N 34°37' E 135°26'0 0.0
2015-Jun-29 01:29N 34°37' E 135°26'0 0.0
2015-Jun-29 00:29N 34°37' E 135°26'0 0.0
2015-Jun-28 23:29N 34°37' E 135°26'1111.6
2015-Jun-28 22:33N 34°37' E 135°13'1818.2
2015-Jun-28 21:33N 34°34' E 134°51'1 0.0
2015-Jun-27 12:28N 34°34' E 134°51'1920.2
2015-Jun-27 11:33N 34°36' E 135°13'1010.1
2015-Jun-27 10:32N 34°37' E 135°26'0 0.0
2015-Jun-27 09:32N 34°37' E 135°26'0 0.0
2015-Jun-27 08:32N 34°37' E 135°26'0 0.0
2015-Jun-27 07:32N 34°37' E 135°26'0 0.0
2015-Jun-27 06:32N 34°37' E 135°26'0 0.0
2015-Jun-27 05:32N 34°37' E 135°26'0 0.0
2015-Jun-27 04:20N 34°37' E 135°26'0 0.0
2015-Jun-27 03:32N 34°37' E 135°26'0 0.0
2015-Jun-27 02:32N 34°37' E 135°26'0 0.0
2015-Jun-27 01:34N 34°37' E 135°26'0 0.0
2015-Jun-27 00:34N 34°37' E 135°26'0 0.0
2015-Jun-26 23:34N 34°37' E 135°26'1010.4
2015-Jun-26 22:34N 34°35' E 135°13'1918.7
2015-Jun-26 21:33N 34°33' E 134°51'2 0.0
2015-Jun-25 12:29N 34°35' E 134°51'1819.9
2015-Jun-25 11:33N 34°36' E 135°13'1010.3
2015-Jun-25 10:33N 34°37' E 135°26'0 0.0
2015-Jun-25 09:33N 34°37' E 135°26'0 0.0
2015-Jun-25 08:33N 34°37' E 135°26'0 0.0
2015-Jun-25 07:27N 34°37' E 135°26'0 0.0
2015-Jun-25 06:27N 34°37' E 135°26'0 0.0
2015-Jun-25 05:33N 34°37' E 135°26'0 0.0
2015-Jun-25 04:33N 34°37' E 135°26'0 0.0
2015-Jun-25 03:27N 34°37' E 135°26'0 0.0
2015-Jun-25 02:33N 34°37' E 135°26'0 0.0
2015-Jun-25 01:33N 34°37' E 135°26'0 0.0
2015-Jun-25 00:27N 34°37' E 135°26'0 0.0
2015-Jun-24 23:33N 34°37' E 135°26'1211.7
2015-Jun-24 22:33N 34°34' E 135°12'1716.7
2015-Jun-24 21:33N 34°34' E 134°52'  
Track history (hours):
 
Tides and Currents Weather Stations Pressure Air Temp Water Temp Dewpoint Dewpoint Depression Visibility Wind Speed Wind Dir Waves Ship Positions

Ferry Kyoto2

Last reported at 2015-Jul-04 21:33 UTC. Time now 2015-Jul-04 22:30 UTC.
Position N 34°34' E 134°52'.

Length 167 m; draft 6 m.

Type: Passenger vessel. MMSI: 431301641.

Date/timePositionNaut miles runAvg speedWind from/ knotsBaromVisibWave heightAir tempDewpointWater temp
2015-Jul-04 21:33N 34°34' E 134°52'1 0.0
2015-Jul-03 12:29N 34°35' E 134°52'2021.6
2015-Jul-03 11:34N 34°36' E 135°16'8 6.4
2015-Jul-03 10:18N 34°37' E 135°26'0 0.0
2015-Jul-03 09:30N 34°37' E 135°26'0 0.0
2015-Jul-03 08:30N 34°37' E 135°26'0 0.0
2015-Jul-03 07:30N 34°37' E 135°26'0 0.0
2015-Jul-03 06:30N 34°37' E 135°26'0 0.0
2015-Jul-03 05:30N 34°37' E 135°26'0 0.0
2015-Jul-03 04:30N 34°37' E 135°26'0 0.0
2015-Jul-03 03:30N 34°37' E 135°26'0 0.0
2015-Jul-03 02:30N 34°37' E 135°26'0 0.0
2015-Jul-03 01:30N 34°37' E 135°26'0 0.0
2015-Jul-03 00:30N 34°37' E 135°26'0 0.0
2015-Jul-02 23:33N 34°37' E 135°26'1110.9
2015-Jul-02 22:33N 34°35' E 135°13'1817.9
2015-Jul-02 21:32N 34°34' E 134°51'3 0.1
2015-Jul-01 12:33N 34°34' E 134°47'2222.3
2015-Jul-01 11:33N 34°36' E 135°14'10 8.7
2015-Jul-01 10:25N 34°37' E 135°26'0 0.0
2015-Jul-01 09:31N 34°37' E 135°26'0 0.0
2015-Jul-01 08:31N 34°37' E 135°26'0 0.0
2015-Jul-01 07:31N 34°37' E 135°26'0 0.0
2015-Jul-01 06:19N 34°37' E 135°26'0 0.0
2015-Jul-01 05:31N 34°37' E 135°26'0 0.0
2015-Jul-01 04:31N 34°37' E 135°26'0 0.0
2015-Jul-01 03:31N 34°37' E 135°26'0 0.0
2015-Jul-01 02:31N 34°37' E 135°26'0 0.0
2015-Jul-01 01:31N 34°37' E 135°26'0 0.0
2015-Jul-01 00:25N 34°37' E 135°26'0 0.0
2015-Jun-30 23:33N 34°37' E 135°26'1111.1
2015-Jun-30 22:33N 34°35' E 135°13'2019.7
2015-Jun-30 21:33N 34°33' E 134°49'2 0.1
2015-Jun-29 12:23N 34°35' E 134°50'1821.9
2015-Jun-29 11:33N 34°37' E 135°12'1110.3
2015-Jun-29 10:29N 34°37' E 135°26'0 0.0
2015-Jun-29 09:17N 34°37' E 135°26'0 0.0
2015-Jun-29 08:17N 34°37' E 135°26'0 0.0
2015-Jun-29 07:29N 34°37' E 135°26'0 0.0
2015-Jun-29 06:29N 34°37' E 135°26'0 0.0
2015-Jun-29 05:23N 34°37' E 135°26'0 0.0
2015-Jun-29 04:29N 34°37' E 135°26'0 0.0
2015-Jun-29 03:29N 34°37' E 135°26'0 0.0
2015-Jun-29 02:23N 34°37' E 135°26'0 0.0
2015-Jun-29 01:29N 34°37' E 135°26'0 0.0
2015-Jun-29 00:29N 34°37' E 135°26'0 0.0
2015-Jun-28 23:29N 34°37' E 135°26'1111.6
2015-Jun-28 22:33N 34°37' E 135°13'1818.2
2015-Jun-28 21:33N 34°34' E 134°51'1 0.0
2015-Jun-27 12:28N 34°34' E 134°51'1920.2
2015-Jun-27 11:33N 34°36' E 135°13'1010.1
2015-Jun-27 10:32N 34°37' E 135°26'0 0.0
2015-Jun-27 09:32N 34°37' E 135°26'0 0.0
2015-Jun-27 08:32N 34°37' E 135°26'0 0.0
2015-Jun-27 07:32N 34°37' E 135°26'0 0.0
2015-Jun-27 06:32N 34°37' E 135°26'0 0.0
2015-Jun-27 05:32N 34°37' E 135°26'0 0.0
2015-Jun-27 04:20N 34°37' E 135°26'0 0.0
2015-Jun-27 03:32N 34°37' E 135°26'0 0.0
2015-Jun-27 02:32N 34°37' E 135°26'0 0.0
2015-Jun-27 01:34N 34°37' E 135°26'0 0.0
2015-Jun-27 00:34N 34°37' E 135°26'0 0.0
2015-Jun-26 23:34N 34°37' E 135°26'1010.4
2015-Jun-26 22:34N 34°35' E 135°13'1918.7
2015-Jun-26 21:33N 34°33' E 134°51'2 0.0
2015-Jun-25 12:29N 34°35' E 134°51'1819.9
2015-Jun-25 11:33N 34°36' E 135°13'1010.3
2015-Jun-25 10:33N 34°37' E 135°26'0 0.0
2015-Jun-25 09:33N 34°37' E 135°26'0 0.0
2015-Jun-25 08:33N 34°37' E 135°26'0 0.0
2015-Jun-25 07:27N 34°37' E 135°26'0 0.0
2015-Jun-25 06:27N 34°37' E 135°26'0 0.0
2015-Jun-25 05:33N 34°37' E 135°26'0 0.0
2015-Jun-25 04:33N 34°37' E 135°26'0 0.0
2015-Jun-25 03:27N 34°37' E 135°26'0 0.0
2015-Jun-25 02:33N 34°37' E 135°26'0 0.0
2015-Jun-25 01:33N 34°37' E 135°26'0 0.0
2015-Jun-25 00:27N 34°37' E 135°26'0 0.0
2015-Jun-24 23:33N 34°37' E 135°26'1211.7
2015-Jun-24 22:33N 34°34' E 135°12'1716.7
2015-Jun-24 21:33N 34°34' E 134°52'  

Dump ship's entire track history